sensor_id;sensor_type;location;lat;lon;timestamp;P1;durP1;ratioP1;P2;durP2;ratioP2
55827;SDS011;41758;51.992;5.890;2023-07-24T00:00:59;3.75;;;2.40;;
55827;SDS011;41758;51.992;5.890;2023-07-24T00:03:25;4.25;;;2.80;;
55827;SDS011;41758;51.992;5.890;2023-07-24T00:05:50;4.97;;;3.13;;
55827;SDS011;41758;51.992;5.890;2023-07-24T00:08:16;3.78;;;2.60;;
55827;SDS011;41758;51.992;5.890;2023-07-24T00:10:42;4.57;;;3.10;;
55827;SDS011;41758;51.992;5.890;2023-07-24T00:13:07;5.55;;;3.10;;
55827;SDS011;41758;51.992;5.890;2023-07-24T00:15:33;4.80;;;3.25;;
55827;SDS011;41758;51.992;5.890;2023-07-24T00:17:59;3.80;;;2.80;;
55827;SDS011;41758;51.992;5.890;2023-07-24T00:20:24;4.20;;;3.05;;
55827;SDS011;41758;51.992;5.890;2023-07-24T00:22:51;4.70;;;3.13;;
55827;SDS011;41758;51.992;5.890;2023-07-24T00:25:16;4.65;;;3.08;;
55827;SDS011;41758;51.992;5.890;2023-07-24T00:27:42;5.85;;;3.83;;
55827;SDS011;41758;51.992;5.890;2023-07-24T00:30:08;4.38;;;3.53;;
55827;SDS011;41758;51.992;5.890;2023-07-24T00:32:34;4.35;;;3.03;;
55827;SDS011;41758;51.992;5.890;2023-07-24T00:35:01;4.38;;;2.95;;
55827;SDS011;41758;51.992;5.890;2023-07-24T00:37:26;3.53;;;2.63;;
55827;SDS011;41758;51.992;5.890;2023-07-24T00:39:52;3.95;;;2.88;;
55827;SDS011;41758;51.992;5.890;2023-07-24T00:42:18;3.90;;;2.90;;
55827;SDS011;41758;51.992;5.890;2023-07-24T00:44:47;5.60;;;3.65;;
55827;SDS011;41758;51.992;5.890;2023-07-24T00:47:12;5.18;;;3.53;;
55827;SDS011;41758;51.992;5.890;2023-07-24T00:49:38;4.25;;;3.30;;
55827;SDS011;41758;51.992;5.890;2023-07-24T00:52:04;4.47;;;3.25;;
55827;SDS011;41758;51.992;5.890;2023-07-24T00:54:30;4.30;;;3.08;;
55827;SDS011;41758;51.992;5.890;2023-07-24T00:56:58;4.45;;;3.00;;
55827;SDS011;41758;51.992;5.890;2023-07-24T00:59:25;4.43;;;3.25;;
55827;SDS011;41758;51.992;5.890;2023-07-24T01:01:51;4.20;;;2.80;;
55827;SDS011;41758;51.992;5.890;2023-07-24T01:04:17;3.78;;;2.67;;
55827;SDS011;41758;51.992;5.890;2023-07-24T01:06:44;3.65;;;2.58;;
55827;SDS011;41758;51.992;5.890;2023-07-24T01:09:10;3.58;;;2.50;;
55827;SDS011;41758;51.992;5.890;2023-07-24T01:11:37;4.05;;;2.60;;
55827;SDS011;41758;51.992;5.890;2023-07-24T01:16:45;3.58;;;2.55;;
55827;SDS011;41758;51.992;5.890;2023-07-24T01:19:30;3.75;;;2.60;;
55827;SDS011;41758;51.992;5.890;2023-07-24T01:27:24;4.15;;;2.90;;
55827;SDS011;41758;51.992;5.890;2023-07-24T01:29:51;4.68;;;3.50;;
55827;SDS011;41758;51.992;5.890;2023-07-24T01:32:18;5.97;;;4.00;;
55827;SDS011;41758;51.992;5.890;2023-07-24T01:34:44;4.85;;;3.55;;
55827;SDS011;41758;51.992;5.890;2023-07-24T01:37:11;4.78;;;3.55;;
55827;SDS011;41758;51.992;5.890;2023-07-24T01:39:38;5.00;;;3.78;;
55827;SDS011;41758;51.992;5.890;2023-07-24T01:42:06;5.32;;;4.00;;
55827;SDS011;41758;51.992;5.890;2023-07-24T01:44:32;4.90;;;3.80;;
55827;SDS011;41758;51.992;5.890;2023-07-24T01:46:57;4.95;;;3.80;;
55827;SDS011;41758;51.992;5.890;2023-07-24T01:49:23;6.32;;;4.65;;
55827;SDS011;41758;51.992;5.890;2023-07-24T01:51:49;5.15;;;4.20;;
55827;SDS011;41758;51.992;5.890;2023-07-24T01:54:14;4.75;;;3.70;;
55827;SDS011;41758;51.992;5.890;2023-07-24T01:56:40;6.80;;;4.20;;
55827;SDS011;41758;51.992;5.890;2023-07-24T01:59:07;5.82;;;4.60;;
55827;SDS011;41758;51.992;5.890;2023-07-24T02:01:32;6.15;;;5.45;;
55827;SDS011;41758;51.992;5.890;2023-07-24T02:03:58;6.43;;;4.78;;
55827;SDS011;41758;51.992;5.890;2023-07-24T02:06:24;5.55;;;4.28;;
55827;SDS011;41758;51.992;5.890;2023-07-24T02:08:49;5.53;;;4.43;;
55827;SDS011;41758;51.992;5.890;2023-07-24T02:11:16;5.32;;;4.43;;
55827;SDS011;41758;51.992;5.890;2023-07-24T02:13:45;4.72;;;3.67;;
55827;SDS011;41758;51.992;5.890;2023-07-24T02:16:13;6.38;;;4.93;;
55827;SDS011;41758;51.992;5.890;2023-07-24T02:18:40;6.90;;;5.18;;
55827;SDS011;41758;51.992;5.890;2023-07-24T02:21:08;5.90;;;4.80;;
55827;SDS011;41758;51.992;5.890;2023-07-24T02:23:34;7.97;;;5.35;;
55827;SDS011;41758;51.992;5.890;2023-07-24T02:26:00;6.50;;;5.38;;
55827;SDS011;41758;51.992;5.890;2023-07-24T02:28:26;6.53;;;5.18;;
55827;SDS011;41758;51.992;5.890;2023-07-24T02:30:51;7.22;;;4.22;;
55827;SDS011;41758;51.992;5.890;2023-07-24T02:33:21;6.22;;;4.40;;
55827;SDS011;41758;51.992;5.890;2023-07-24T02:35:48;5.15;;;4.00;;
55827;SDS011;41758;51.992;5.890;2023-07-24T02:38:16;5.72;;;4.80;;
55827;SDS011;41758;51.992;5.890;2023-07-24T02:40:42;6.63;;;4.93;;
55827;SDS011;41758;51.992;5.890;2023-07-24T02:43:09;5.78;;;4.60;;
55827;SDS011;41758;51.992;5.890;2023-07-24T02:45:35;5.18;;;4.40;;
55827;SDS011;41758;51.992;5.890;2023-07-24T02:48:02;5.55;;;4.43;;
55827;SDS011;41758;51.992;5.890;2023-07-24T02:50:28;5.63;;;4.30;;
55827;SDS011;41758;51.992;5.890;2023-07-24T02:52:54;5.50;;;4.20;;
55827;SDS011;41758;51.992;5.890;2023-07-24T02:55:20;5.15;;;4.10;;
55827;SDS011;41758;51.992;5.890;2023-07-24T02:57:46;5.93;;;4.47;;
55827;SDS011;41758;51.992;5.890;2023-07-24T03:00:12;6.25;;;4.90;;
55827;SDS011;41758;51.992;5.890;2023-07-24T03:02:38;6.45;;;5.25;;
55827;SDS011;41758;51.992;5.890;2023-07-24T03:05:04;6.50;;;4.53;;
55827;SDS011;41758;51.992;5.890;2023-07-24T03:07:30;6.38;;;5.20;;
55827;SDS011;41758;51.992;5.890;2023-07-24T03:09:56;8.35;;;5.18;;
55827;SDS011;41758;51.992;5.890;2023-07-24T03:12:22;6.43;;;4.80;;
55827;SDS011;41758;51.992;5.890;2023-07-24T03:14:48;6.60;;;4.65;;
55827;SDS011;41758;51.992;5.890;2023-07-24T03:17:13;5.57;;;4.65;;
55827;SDS011;41758;51.992;5.890;2023-07-24T03:19:40;5.53;;;4.13;;
55827;SDS011;41758;51.992;5.890;2023-07-24T03:22:06;5.20;;;4.30;;
55827;SDS011;41758;51.992;5.890;2023-07-24T03:24:32;5.72;;;4.10;;
55827;SDS011;41758;51.992;5.890;2023-07-24T03:26:59;5.40;;;4.45;;
55827;SDS011;41758;51.992;5.890;2023-07-24T03:29:25;6.20;;;4.70;;
55827;SDS011;41758;51.992;5.890;2023-07-24T03:31:52;6.45;;;4.93;;
55827;SDS011;41758;51.992;5.890;2023-07-24T03:34:18;5.60;;;4.40;;
55827;SDS011;41758;51.992;5.890;2023-07-24T03:36:43;5.40;;;4.30;;
55827;SDS011;41758;51.992;5.890;2023-07-24T03:39:09;6.15;;;4.20;;
55827;SDS011;41758;51.992;5.890;2023-07-24T03:41:37;5.88;;;4.88;;
55827;SDS011;41758;51.992;5.890;2023-07-24T03:44:03;6.07;;;4.82;;
55827;SDS011;41758;51.992;5.890;2023-07-24T03:46:31;5.60;;;4.88;;
55827;SDS011;41758;51.992;5.890;2023-07-24T03:48:57;7.22;;;5.20;;
55827;SDS011;41758;51.992;5.890;2023-07-24T03:51:23;6.47;;;5.65;;
55827;SDS011;41758;51.992;5.890;2023-07-24T03:53:49;7.53;;;5.93;;
55827;SDS011;41758;51.992;5.890;2023-07-24T03:56:14;7.22;;;6.15;;
55827;SDS011;41758;51.992;5.890;2023-07-24T03:58:40;8.93;;;7.85;;
55827;SDS011;41758;51.992;5.890;2023-07-24T04:01:06;7.68;;;6.68;;
55827;SDS011;41758;51.992;5.890;2023-07-24T04:03:32;7.50;;;6.70;;
55827;SDS011;41758;51.992;5.890;2023-07-24T04:05:58;7.65;;;6.80;;
55827;SDS011;41758;51.992;5.890;2023-07-24T04:08:24;7.32;;;6.28;;
55827;SDS011;41758;51.992;5.890;2023-07-24T04:10:50;7.38;;;6.25;;
55827;SDS011;41758;51.992;5.890;2023-07-24T04:13:15;7.97;;;7.18;;
55827;SDS011;41758;51.992;5.890;2023-07-24T04:15:41;8.50;;;7.60;;
55827;SDS011;41758;51.992;5.890;2023-07-24T04:18:07;8.43;;;6.85;;
55827;SDS011;41758;51.992;5.890;2023-07-24T04:20:33;9.07;;;7.28;;
55827;SDS011;41758;51.992;5.890;2023-07-24T04:22:58;7.68;;;6.72;;
55827;SDS011;41758;51.992;5.890;2023-07-24T04:25:24;7.85;;;6.22;;
55827;SDS011;41758;51.992;5.890;2023-07-24T04:27:51;8.82;;;7.00;;
55827;SDS011;41758;51.992;5.890;2023-07-24T04:30:17;7.90;;;7.07;;
55827;SDS011;41758;51.992;5.890;2023-07-24T04:32:42;8.07;;;6.72;;
55827;SDS011;41758;51.992;5.890;2023-07-24T04:35:08;7.38;;;6.57;;
55827;SDS011;41758;51.992;5.890;2023-07-24T04:37:34;8.40;;;7.50;;
55827;SDS011;41758;51.992;5.890;2023-07-24T04:40:00;7.00;;;6.30;;
55827;SDS011;41758;51.992;5.890;2023-07-24T04:42:26;7.55;;;6.75;;
55827;SDS011;41758;51.992;5.890;2023-07-24T04:44:51;7.40;;;6.35;;
55827;SDS011;41758;51.992;5.890;2023-07-24T04:47:17;6.60;;;5.90;;
55827;SDS011;41758;51.992;5.890;2023-07-24T04:49:43;7.32;;;6.55;;
55827;SDS011;41758;51.992;5.890;2023-07-24T04:52:08;8.63;;;7.72;;
55827;SDS011;41758;51.992;5.890;2023-07-24T04:54:34;7.43;;;6.63;;
55827;SDS011;41758;51.992;5.890;2023-07-24T04:57:00;7.13;;;6.30;;
55827;SDS011;41758;51.992;5.890;2023-07-24T04:59:25;8.85;;;7.88;;
55827;SDS011;41758;51.992;5.890;2023-07-24T05:01:51;8.35;;;7.45;;
55827;SDS011;41758;51.992;5.890;2023-07-24T05:04:17;8.25;;;7.45;;
55827;SDS011;41758;51.992;5.890;2023-07-24T05:06:42;7.15;;;6.45;;
55827;SDS011;41758;51.992;5.890;2023-07-24T05:09:08;7.20;;;6.40;;
55827;SDS011;41758;51.992;5.890;2023-07-24T05:11:34;6.85;;;6.13;;
55827;SDS011;41758;51.992;5.890;2023-07-24T05:13:59;7.30;;;6.60;;
55827;SDS011;41758;51.992;5.890;2023-07-24T05:16:25;10.52;;;9.00;;
55827;SDS011;41758;51.992;5.890;2023-07-24T05:18:51;9.20;;;8.30;;
55827;SDS011;41758;51.992;5.890;2023-07-24T05:21:16;9.40;;;8.40;;
55827;SDS011;41758;51.992;5.890;2023-07-24T05:23:42;9.43;;;8.32;;
55827;SDS011;41758;51.992;5.890;2023-07-24T05:26:08;9.55;;;8.65;;
55827;SDS011;41758;51.992;5.890;2023-07-24T05:28:33;11.13;;;9.98;;
55827;SDS011;41758;51.992;5.890;2023-07-24T05:31:00;11.98;;;9.82;;
55827;SDS011;41758;51.992;5.890;2023-07-24T05:33:27;10.75;;;9.68;;
55827;SDS011;41758;51.992;5.890;2023-07-24T05:35:57;10.73;;;9.63;;
55827;SDS011;41758;51.992;5.890;2023-07-24T05:38:26;11.43;;;10.30;;
55827;SDS011;41758;51.992;5.890;2023-07-24T05:40:58;10.70;;;9.60;;
55827;SDS011;41758;51.992;5.890;2023-07-24T05:43:25;9.93;;;8.98;;
55827;SDS011;41758;51.992;5.890;2023-07-24T05:45:52;9.18;;;8.27;;
55827;SDS011;41758;51.992;5.890;2023-07-24T05:48:19;10.80;;;9.68;;
55827;SDS011;41758;51.992;5.890;2023-07-24T05:50:45;10.13;;;9.13;;
55827;SDS011;41758;51.992;5.890;2023-07-24T05:53:11;10.07;;;8.95;;
55827;SDS011;41758;51.992;5.890;2023-07-24T05:55:36;12.07;;;10.80;;
55827;SDS011;41758;51.992;5.890;2023-07-24T05:58:02;15.27;;;13.68;;
55827;SDS011;41758;51.992;5.890;2023-07-24T06:00:28;12.60;;;11.30;;
55827;SDS011;41758;51.992;5.890;2023-07-24T06:02:53;13.70;;;11.88;;
55827;SDS011;41758;51.992;5.890;2023-07-24T06:05:19;15.23;;;13.40;;
55827;SDS011;41758;51.992;5.890;2023-07-24T06:07:45;12.82;;;11.63;;
55827;SDS011;41758;51.992;5.890;2023-07-24T06:10:12;11.68;;;10.48;;
55827;SDS011;41758;51.992;5.890;2023-07-24T06:12:38;13.13;;;11.82;;
55827;SDS011;41758;51.992;5.890;2023-07-24T06:15:04;14.63;;;13.20;;
55827;SDS011;41758;51.992;5.890;2023-07-24T06:17:30;13.73;;;12.32;;
55827;SDS011;41758;51.992;5.890;2023-07-24T06:19:56;12.45;;;11.15;;
55827;SDS011;41758;51.992;5.890;2023-07-24T06:22:22;11.20;;;10.02;;
55827;SDS011;41758;51.992;5.890;2023-07-24T06:24:48;12.20;;;10.90;;
55827;SDS011;41758;51.992;5.890;2023-07-24T06:27:14;12.43;;;10.93;;
55827;SDS011;41758;51.992;5.890;2023-07-24T06:29:40;11.68;;;10.25;;
55827;SDS011;41758;51.992;5.890;2023-07-24T06:32:06;14.15;;;12.40;;
55827;SDS011;41758;51.992;5.890;2023-07-24T06:34:32;13.68;;;12.27;;
55827;SDS011;41758;51.992;5.890;2023-07-24T06:36:58;12.57;;;11.07;;
55827;SDS011;41758;51.992;5.890;2023-07-24T06:39:24;13.20;;;11.77;;
55827;SDS011;41758;51.992;5.890;2023-07-24T06:41:53;13.20;;;11.60;;
55827;SDS011;41758;51.992;5.890;2023-07-24T06:44:19;15.73;;;13.85;;
55827;SDS011;41758;51.992;5.890;2023-07-24T06:46:45;14.93;;;13.20;;
55827;SDS011;41758;51.992;5.890;2023-07-24T06:49:11;12.95;;;11.60;;
55827;SDS011;41758;51.992;5.890;2023-07-24T06:51:37;13.43;;;11.50;;
55827;SDS011;41758;51.992;5.890;2023-07-24T06:54:04;13.60;;;12.20;;
55827;SDS011;41758;51.992;5.890;2023-07-24T06:56:30;13.70;;;11.43;;
55827;SDS011;41758;51.992;5.890;2023-07-24T06:58:56;13.55;;;12.07;;
55827;SDS011;41758;51.992;5.890;2023-07-24T07:01:21;13.23;;;11.93;;
55827;SDS011;41758;51.992;5.890;2023-07-24T07:03:47;14.00;;;12.50;;
55827;SDS011;41758;51.992;5.890;2023-07-24T07:06:13;14.77;;;13.27;;
55827;SDS011;41758;51.992;5.890;2023-07-24T07:08:39;12.48;;;11.27;;
55827;SDS011;41758;51.992;5.890;2023-07-24T07:11:04;17.60;;;15.68;;
55827;SDS011;41758;51.992;5.890;2023-07-24T07:13:30;16.30;;;14.70;;
55827;SDS011;41758;51.992;5.890;2023-07-24T07:15:56;17.65;;;15.80;;
55827;SDS011;41758;51.992;5.890;2023-07-24T07:18:21;17.67;;;15.77;;
55827;SDS011;41758;51.992;5.890;2023-07-24T07:20:48;16.35;;;14.82;;
55827;SDS011;41758;51.992;5.890;2023-07-24T07:23:14;16.05;;;14.45;;
55827;SDS011;41758;51.992;5.890;2023-07-24T07:25:40;17.67;;;15.93;;
55827;SDS011;41758;51.992;5.890;2023-07-24T07:28:08;16.50;;;14.80;;
55827;SDS011;41758;51.992;5.890;2023-07-24T07:30:34;15.88;;;14.20;;
55827;SDS011;41758;51.992;5.890;2023-07-24T07:33:00;20.65;;;18.33;;
55827;SDS011;41758;51.992;5.890;2023-07-24T07:35:26;21.23;;;19.02;;
55827;SDS011;41758;51.992;5.890;2023-07-24T07:37:52;20.92;;;18.92;;
55827;SDS011;41758;51.992;5.890;2023-07-24T07:40:17;21.98;;;19.73;;
55827;SDS011;41758;51.992;5.890;2023-07-24T07:42:43;22.58;;;20.15;;
55827;SDS011;41758;51.992;5.890;2023-07-24T07:45:10;21.23;;;19.13;;
55827;SDS011;41758;51.992;5.890;2023-07-24T07:47:36;20.08;;;18.08;;
55827;SDS011;41758;51.992;5.890;2023-07-24T07:50:02;20.60;;;18.65;;
55827;SDS011;41758;51.992;5.890;2023-07-24T07:52:28;18.85;;;17.00;;
55827;SDS011;41758;51.992;5.890;2023-07-24T07:54:53;22.80;;;20.50;;
55827;SDS011;41758;51.992;5.890;2023-07-24T07:57:19;22.60;;;20.38;;
55827;SDS011;41758;51.992;5.890;2023-07-24T07:59:45;21.60;;;19.48;;
55827;SDS011;41758;51.992;5.890;2023-07-24T08:02:11;19.83;;;17.48;;
55827;SDS011;41758;51.992;5.890;2023-07-24T08:04:36;19.58;;;17.60;;
55827;SDS011;41758;51.992;5.890;2023-07-24T08:07:02;21.05;;;17.98;;
55827;SDS011;41758;51.992;5.890;2023-07-24T08:09:28;21.23;;;18.92;;
55827;SDS011;41758;51.992;5.890;2023-07-24T08:11:54;19.02;;;17.02;;
55827;SDS011;41758;51.992;5.890;2023-07-24T08:14:19;17.95;;;16.13;;
55827;SDS011;41758;51.992;5.890;2023-07-24T08:16:48;20.20;;;16.85;;
55827;SDS011;41758;51.992;5.890;2023-07-24T08:19:14;18.20;;;16.15;;
55827;SDS011;41758;51.992;5.890;2023-07-24T08:21:40;16.92;;;15.23;;
55827;SDS011;41758;51.992;5.890;2023-07-24T08:24:06;19.75;;;17.73;;
55827;SDS011;41758;51.992;5.890;2023-07-24T08:26:32;20.27;;;18.27;;
55827;SDS011;41758;51.992;5.890;2023-07-24T08:28:58;20.23;;;18.13;;
55827;SDS011;41758;51.992;5.890;2023-07-24T08:31:23;21.73;;;19.42;;
55827;SDS011;41758;51.992;5.890;2023-07-24T08:33:49;23.55;;;20.85;;
55827;SDS011;41758;51.992;5.890;2023-07-24T08:36:15;22.17;;;19.88;;
55827;SDS011;41758;51.992;5.890;2023-07-24T08:38:41;23.40;;;20.90;;
55827;SDS011;41758;51.992;5.890;2023-07-24T08:41:08;23.45;;;21.00;;
55827;SDS011;41758;51.992;5.890;2023-07-24T08:43:39;23.95;;;21.45;;
55827;SDS011;41758;51.992;5.890;2023-07-24T08:46:06;22.70;;;20.30;;
55827;SDS011;41758;51.992;5.890;2023-07-24T08:48:33;23.50;;;21.00;;
55827;SDS011;41758;51.992;5.890;2023-07-24T08:51:08;24.23;;;21.63;;
55827;SDS011;41758;51.992;5.890;2023-07-24T08:53:36;24.25;;;21.75;;
55827;SDS011;41758;51.992;5.890;2023-07-24T08:56:04;25.42;;;22.85;;
55827;SDS011;41758;51.992;5.890;2023-07-24T08:58:31;24.48;;;22.08;;
55827;SDS011;41758;51.992;5.890;2023-07-24T09:00:57;21.77;;;19.58;;
55827;SDS011;41758;51.992;5.890;2023-07-24T09:03:24;20.73;;;18.80;;
55827;SDS011;41758;51.992;5.890;2023-07-24T09:05:49;21.83;;;19.63;;
55827;SDS011;41758;51.992;5.890;2023-07-24T09:08:15;25.80;;;23.17;;
55827;SDS011;41758;51.992;5.890;2023-07-24T09:10:41;21.35;;;19.25;;
55827;SDS011;41758;51.992;5.890;2023-07-24T09:13:07;21.77;;;19.77;;
55827;SDS011;41758;51.992;5.890;2023-07-24T09:15:43;21.55;;;19.45;;
55827;SDS011;41758;51.992;5.890;2023-07-24T09:18:09;21.58;;;19.58;;
55827;SDS011;41758;51.992;5.890;2023-07-24T09:20:41;20.90;;;18.90;;
55827;SDS011;41758;51.992;5.890;2023-07-24T09:23:09;20.77;;;18.92;;
55827;SDS011;41758;51.992;5.890;2023-07-24T09:25:36;21.55;;;19.55;;
55827;SDS011;41758;51.992;5.890;2023-07-24T09:28:36;19.83;;;18.02;;
55827;SDS011;41758;51.992;5.890;2023-07-24T09:30:55;20.75;;;18.85;;
55827;SDS011;41758;51.992;5.890;2023-07-24T09:36:01;19.02;;;17.23;;
55827;SDS011;41758;51.992;5.890;2023-07-24T09:38:29;21.77;;;19.70;;
55827;SDS011;41758;51.992;5.890;2023-07-24T09:40:55;20.77;;;18.77;;
55827;SDS011;41758;51.992;5.890;2023-07-24T09:43:23;17.73;;;16.10;;
55827;SDS011;41758;51.992;5.890;2023-07-24T09:45:50;22.27;;;20.10;;
55827;SDS011;41758;51.992;5.890;2023-07-24T09:48:17;19.27;;;17.48;;
55827;SDS011;41758;51.992;5.890;2023-07-24T09:50:45;19.00;;;17.20;;
55827;SDS011;41758;51.992;5.890;2023-07-24T09:53:25;18.58;;;16.80;;
55827;SDS011;41758;51.992;5.890;2023-07-24T09:56:04;19.65;;;17.65;;
55827;SDS011;41758;51.992;5.890;2023-07-24T09:58:32;16.73;;;15.13;;
55827;SDS011;41758;51.992;5.890;2023-07-24T10:01:03;17.42;;;15.82;;
55827;SDS011;41758;51.992;5.890;2023-07-24T10:03:38;19.17;;;17.27;;
55827;SDS011;41758;51.992;5.890;2023-07-24T10:06:11;17.38;;;15.68;;
55827;SDS011;41758;51.992;5.890;2023-07-24T10:08:40;14.88;;;13.45;;
55827;SDS011;41758;51.992;5.890;2023-07-24T10:11:12;14.70;;;13.30;;
55827;SDS011;41758;51.992;5.890;2023-07-24T10:13:42;17.13;;;15.50;;
55827;SDS011;41758;51.992;5.890;2023-07-24T10:16:08;15.63;;;14.13;;
55827;SDS011;41758;51.992;5.890;2023-07-24T10:18:35;15.60;;;14.00;;
55827;SDS011;41758;51.992;5.890;2023-07-24T10:21:07;16.30;;;14.82;;
55827;SDS011;41758;51.992;5.890;2023-07-24T10:23:45;17.67;;;15.88;;
55827;SDS011;41758;51.992;5.890;2023-07-24T10:26:13;15.55;;;14.05;;
55827;SDS011;41758;51.992;5.890;2023-07-24T10:28:41;15.52;;;14.02;;
55827;SDS011;41758;51.992;5.890;2023-07-24T10:31:07;15.18;;;13.88;;
55827;SDS011;41758;51.992;5.890;2023-07-24T10:33:44;16.52;;;14.82;;
55827;SDS011;41758;51.992;5.890;2023-07-24T10:36:11;19.92;;;17.92;;
55827;SDS011;41758;51.992;5.890;2023-07-24T10:38:41;17.63;;;15.93;;
55827;SDS011;41758;51.992;5.890;2023-07-24T10:41:08;17.60;;;15.90;;
55827;SDS011;41758;51.992;5.890;2023-07-24T10:46:17;21.85;;;19.75;;
55827;SDS011;41758;51.992;5.890;2023-07-24T10:48:48;21.85;;;19.67;;
55827;SDS011;41758;51.992;5.890;2023-07-24T10:51:15;17.98;;;16.38;;
55827;SDS011;41758;51.992;5.890;2023-07-24T10:53:46;18.38;;;16.48;;
55827;SDS011;41758;51.992;5.890;2023-07-24T10:56:12;19.60;;;17.60;;
55827;SDS011;41758;51.992;5.890;2023-07-24T10:58:39;16.52;;;14.93;;
55827;SDS011;41758;51.992;5.890;2023-07-24T11:01:05;19.90;;;17.75;;
55827;SDS011;41758;51.992;5.890;2023-07-24T11:03:32;18.38;;;16.48;;
55827;SDS011;41758;51.992;5.890;2023-07-24T11:06:00;16.38;;;14.85;;
55827;SDS011;41758;51.992;5.890;2023-07-24T11:08:27;17.65;;;14.93;;
55827;SDS011;41758;51.992;5.890;2023-07-24T11:10:57;16.40;;;14.70;;
55827;SDS011;41758;51.992;5.890;2023-07-24T11:13:26;15.15;;;13.63;;
55827;SDS011;41758;51.992;5.890;2023-07-24T11:15:54;14.75;;;13.40;;
55827;SDS011;41758;51.992;5.890;2023-07-24T11:18:20;13.60;;;12.30;;
55827;SDS011;41758;51.992;5.890;2023-07-24T11:20:48;15.07;;;13.57;;
55827;SDS011;41758;51.992;5.890;2023-07-24T11:23:18;16.38;;;14.88;;
55827;SDS011;41758;51.992;5.890;2023-07-24T11:25:44;16.50;;;14.82;;
55827;SDS011;41758;51.992;5.890;2023-07-24T11:28:10;17.33;;;15.63;;
55827;SDS011;41758;51.992;5.890;2023-07-24T11:30:37;18.90;;;17.00;;
55827;SDS011;41758;51.992;5.890;2023-07-24T11:33:05;17.70;;;16.00;;
55827;SDS011;41758;51.992;5.890;2023-07-24T11:35:34;17.35;;;15.65;;
55827;SDS011;41758;51.992;5.890;2023-07-24T11:38:01;17.33;;;15.57;;
55827;SDS011;41758;51.992;5.890;2023-07-24T11:41:00;16.02;;;14.35;;
55827;SDS011;41758;51.992;5.890;2023-07-24T11:43:20;16.95;;;15.20;;
55827;SDS011;41758;51.992;5.890;2023-07-24T11:45:47;16.20;;;14.52;;
55827;SDS011;41758;51.992;5.890;2023-07-24T11:48:17;17.08;;;15.48;;
55827;SDS011;41758;51.992;5.890;2023-07-24T11:50:44;14.65;;;13.35;;
55827;SDS011;41758;51.992;5.890;2023-07-24T11:53:20;16.08;;;14.50;;
55827;SDS011;41758;51.992;5.890;2023-07-24T11:55:57;16.10;;;14.60;;
55827;SDS011;41758;51.992;5.890;2023-07-24T11:58:27;18.23;;;16.42;;
55827;SDS011;41758;51.992;5.890;2023-07-24T12:00:56;18.15;;;16.25;;
55827;SDS011;41758;51.992;5.890;2023-07-24T12:03:23;18.35;;;16.48;;
55827;SDS011;41758;51.992;5.890;2023-07-24T12:05:50;17.40;;;15.70;;
55827;SDS011;41758;51.992;5.890;2023-07-24T12:08:16;16.55;;;14.95;;
55827;SDS011;41758;51.992;5.890;2023-07-24T12:10:43;15.93;;;14.32;;
55827;SDS011;41758;51.992;5.890;2023-07-24T12:13:09;18.30;;;16.50;;
55827;SDS011;41758;51.992;5.890;2023-07-24T12:15:36;16.98;;;15.18;;
55827;SDS011;41758;51.992;5.890;2023-07-24T12:18:03;15.80;;;14.20;;
55827;SDS011;41758;51.992;5.890;2023-07-24T12:20:29;17.13;;;14.85;;
55827;SDS011;41758;51.992;5.890;2023-07-24T12:22:56;16.80;;;15.15;;
55827;SDS011;41758;51.992;5.890;2023-07-24T12:25:22;15.63;;;14.07;;
55827;SDS011;41758;51.992;5.890;2023-07-24T12:27:49;17.08;;;15.25;;
55827;SDS011;41758;51.992;5.890;2023-07-24T12:30:15;14.60;;;12.13;;
55827;SDS011;41758;51.992;5.890;2023-07-24T12:32:40;14.88;;;13.27;;
55827;SDS011;41758;51.992;5.890;2023-07-24T12:35:07;15.48;;;13.88;;
55827;SDS011;41758;51.992;5.890;2023-07-24T12:37:33;15.10;;;13.40;;
55827;SDS011;41758;51.992;5.890;2023-07-24T12:39:59;14.95;;;12.82;;
55827;SDS011;41758;51.992;5.890;2023-07-24T12:42:25;13.55;;;12.20;;
55827;SDS011;41758;51.992;5.890;2023-07-24T12:44:51;13.65;;;12.25;;
55827;SDS011;41758;51.992;5.890;2023-07-24T12:47:17;13.32;;;11.90;;
55827;SDS011;41758;51.992;5.890;2023-07-24T12:49:43;14.95;;;13.27;;
55827;SDS011;41758;51.992;5.890;2023-07-24T12:52:09;13.93;;;12.43;;
55827;SDS011;41758;51.992;5.890;2023-07-24T12:54:36;13.25;;;11.95;;
55827;SDS011;41758;51.992;5.890;2023-07-24T12:57:02;15.30;;;13.80;;
55827;SDS011;41758;51.992;5.890;2023-07-24T12:59:28;13.40;;;12.00;;
55827;SDS011;41758;51.992;5.890;2023-07-24T13:01:54;12.73;;;11.45;;
55827;SDS011;41758;51.992;5.890;2023-07-24T13:04:20;11.95;;;10.23;;
55827;SDS011;41758;51.992;5.890;2023-07-24T13:06:46;11.35;;;9.30;;
55827;SDS011;41758;51.992;5.890;2023-07-24T13:09:12;9.85;;;8.82;;
55827;SDS011;41758;51.992;5.890;2023-07-24T13:11:37;9.63;;;8.38;;
55827;SDS011;41758;51.992;5.890;2023-07-24T13:14:03;9.35;;;8.10;;
55827;SDS011;41758;51.992;5.890;2023-07-24T13:16:29;9.02;;;7.35;;
55827;SDS011;41758;51.992;5.890;2023-07-24T13:18:54;10.93;;;7.40;;
55827;SDS011;41758;51.992;5.890;2023-07-24T13:21:20;9.10;;;7.07;;
55827;SDS011;41758;51.992;5.890;2023-07-24T13:23:46;8.35;;;7.18;;
55827;SDS011;41758;51.992;5.890;2023-07-24T13:26:12;9.02;;;7.50;;
55827;SDS011;41758;51.992;5.890;2023-07-24T13:28:39;10.10;;;7.93;;
55827;SDS011;41758;51.992;5.890;2023-07-24T13:33:40;7.95;;;6.18;;
55827;SDS011;41758;51.992;5.890;2023-07-24T13:36:07;8.98;;;6.47;;
55827;SDS011;41758;51.992;5.890;2023-07-24T13:38:32;7.35;;;5.70;;
55827;SDS011;41758;51.992;5.890;2023-07-24T13:40:58;7.82;;;5.68;;
55827;SDS011;41758;51.992;5.890;2023-07-24T13:43:24;6.63;;;5.15;;
55827;SDS011;41758;51.992;5.890;2023-07-24T13:45:50;7.00;;;5.38;;
55827;SDS011;41758;51.992;5.890;2023-07-24T13:48:16;7.07;;;5.68;;
55827;SDS011;41758;51.992;5.890;2023-07-24T13:50:42;8.07;;;5.97;;
55827;SDS011;41758;51.992;5.890;2023-07-24T13:53:07;8.45;;;7.03;;
55827;SDS011;41758;51.992;5.890;2023-07-24T13:55:33;7.53;;;6.40;;
55827;SDS011;41758;51.992;5.890;2023-07-24T13:57:59;9.80;;;7.13;;
55827;SDS011;41758;51.992;5.890;2023-07-24T14:00:24;6.97;;;5.93;;
55827;SDS011;41758;51.992;5.890;2023-07-24T14:02:50;7.82;;;7.03;;
55827;SDS011;41758;51.992;5.890;2023-07-24T14:05:16;8.25;;;6.80;;
55827;SDS011;41758;51.992;5.890;2023-07-24T14:07:42;7.35;;;5.80;;
55827;SDS011;41758;51.992;5.890;2023-07-24T14:10:09;6.28;;;5.45;;
55827;SDS011;41758;51.992;5.890;2023-07-24T14:12:35;7.10;;;5.78;;
55827;SDS011;41758;51.992;5.890;2023-07-24T14:15:01;6.40;;;5.53;;
55827;SDS011;41758;51.992;5.890;2023-07-24T14:17:28;6.70;;;5.32;;
55827;SDS011;41758;51.992;5.890;2023-07-24T14:19:54;8.27;;;6.63;;
55827;SDS011;41758;51.992;5.890;2023-07-24T14:22:19;6.43;;;5.50;;
55827;SDS011;41758;51.992;5.890;2023-07-24T14:24:45;7.75;;;6.18;;
55827;SDS011;41758;51.992;5.890;2023-07-24T14:27:12;7.20;;;6.00;;
55827;SDS011;41758;51.992;5.890;2023-07-24T14:29:41;8.93;;;6.80;;
55827;SDS011;41758;51.992;5.890;2023-07-24T14:32:07;10.15;;;7.95;;
55827;SDS011;41758;51.992;5.890;2023-07-24T14:34:32;8.55;;;6.97;;
55827;SDS011;41758;51.992;5.890;2023-07-24T14:36:58;7.72;;;5.90;;
55827;SDS011;41758;51.992;5.890;2023-07-24T14:39:24;8.60;;;7.20;;
55827;SDS011;41758;51.992;5.890;2023-07-24T14:41:50;7.70;;;6.53;;
55827;SDS011;41758;51.992;5.890;2023-07-24T14:44:16;6.47;;;5.88;;
55827;SDS011;41758;51.992;5.890;2023-07-24T14:46:42;8.10;;;6.78;;